Time;durP1;ratioP1;P1;durP2;ratioP2;P2;SDS_P1;SDS_P2;PMS_P1;PMS_P2;Temp;Humidity;BMP_temperature;BMP_pressure;BME280_temperature;BME280_humidity;BME280_pressure;Samples;Min_cycle;Max_cycle;Signal;HPM_P1;HPM_P2
2023/09/12 00:01:16;;;;;;;5.45;2.20;;;;;;;16.73;65.29;64725.88;5052566;28;20292;-54
2023/09/12 00:03:42;;;;;;;4.43;1.90;;;;;;;16.71;65.88;64725.69;5052853;28;20307;-54
2023/09/12 00:06:08;;;;;;;2.60;1.58;;;;;;;16.62;66.84;64715.78;5052305;28;20201;-54
2023/09/12 00:08:34;;;;;;;4.93;2.28;;;;;;;16.60;67.19;64711.56;5052675;28;20250;-54
2023/09/12 00:11:04;;;;;;;3.92;2.10;;;;;;;16.57;68.14;64710.81;5052340;28;20232;-55
2023/09/12 00:13:31;;;;;;;4.38;2.10;;;;;;;16.46;68.69;64698.13;5051982;28;20330;-53
2023/09/12 00:15:57;;;;;;;3.50;2.10;;;;;;;16.33;69.51;64684.38;5052107;28;20703;-54
2023/09/12 00:18:22;;;;;;;3.53;1.90;;;;;;;16.37;70.59;64688.78;5033130;28;20206;-54
2023/09/12 00:20:51;;;;;;;2.83;2.05;;;;;;;16.30;71.20;64681.06;5052324;28;20687;-56
2023/09/12 00:23:20;;;;;;;6.93;2.13;;;;;;;16.39;71.11;64688.44;5052273;28;20197;-57
2023/09/12 00:25:45;;;;;;;2.38;1.80;;;;;;;16.38;72.95;64686.78;5051978;28;20216;-54
2023/09/12 00:28:11;;;;;;;3.05;1.73;;;;;;;16.23;74.61;64675.34;5034177;28;20214;-54
2023/09/12 00:30:36;;;;;;;3.08;2.28;;;;;;;16.15;76.02;64664.56;5051940;28;20232;-53
2023/09/12 00:33:02;;;;;;;10.00;2.70;;;;;;;16.06;77.61;64654.63;5051795;28;20209;-54
2023/09/12 00:35:27;;;;;;;3.55;2.55;;;;;;;16.02;78.71;64647.16;5033928;28;20583;-53
2023/09/12 00:37:53;;;;;;;4.60;2.30;;;;;;;15.97;79.56;64647.28;5051991;28;20288;-54
2023/09/12 00:40:18;;;;;;;9.20;2.58;;;;;;;16.03;79.98;64648.81;5051770;28;20266;-54
2023/09/12 00:42:44;;;;;;;3.03;2.53;;;;;;;15.91;80.96;64638.16;5051656;28;20209;-53
2023/09/12 00:45:09;;;;;;;4.18;2.17;;;;;;;15.87;82.04;64631.75;5052144;28;20177;-54
2023/09/12 00:47:36;;;;;;;2.78;2.00;;;;;;;15.71;83.40;64613.59;5051650;28;20272;-53
2023/09/12 00:50:04;;;;;;;3.85;2.53;;;;;;;15.57;84.27;64600.75;5051838;28;20702;-54
2023/09/12 00:52:34;;;;;;;3.08;2.35;;;;;;;15.49;84.69;64589.41;5051570;28;20216;-53
2023/09/12 00:54:59;;;;;;;3.42;2.90;;;;;;;15.50;84.90;64593.59;5051668;28;20300;-54
2023/09/12 00:57:26;;;;;;;3.25;2.08;;;;;;;15.57;84.31;64601.28;5051497;28;20411;-55
2023/09/12 00:59:53;;;;;;;2.58;2.20;;;;;;;15.62;83.75;64603.69;5051440;28;20652;-54
2023/09/12 01:02:20;;;;;;;5.20;2.17;;;;;;;15.77;81.74;64620.75;5051327;28;20675;-53
2023/09/12 01:04:47;;;;;;;3.75;2.17;;;;;;;15.79;78.94;64625.50;5051276;28;20208;-54
2023/09/12 01:07:12;;;;;;;3.33;2.10;;;;;;;15.74;78.41;64616.88;5051570;28;20292;-55
2023/09/12 01:09:38;;;;;;;4.10;2.08;;;;;;;15.82;78.32;64628.22;5051207;28;20351;-57
2023/09/12 01:12:04;;;;;;;2.70;2.08;;;;;;;15.75;78.14;64621.09;5051188;28;20212;-54
2023/09/12 01:14:36;;;;;;;2.65;2.30;;;;;;;15.80;78.24;64624.03;5051273;28;20205;-54
2023/09/12 01:17:02;;;;;;;3.40;1.77;;;;;;;15.86;76.53;64630.09;5016495;28;20240;-54
2023/09/12 01:19:28;;;;;;;3.08;2.35;;;;;;;15.69;76.45;64614.50;5051459;28;20202;-54
2023/09/12 01:22:15;;;;;;;2.60;1.90;;;;;;;15.57;77.46;64598.19;5050975;28;20209;-55
2023/09/12 01:25:07;;;;;;;3.40;2.20;;;;;;;15.52;77.50;64593.25;5033071;28;20221;-54
2023/09/12 01:27:39;;;;;;;2.10;1.70;;;;;;;15.48;78.02;64588.28;5050921;28;20205;-53
2023/09/12 01:30:07;;;;;;;3.75;2.00;;;;;;;15.42;78.86;64584.78;5050678;28;20724;-56
2023/09/12 01:32:33;;;;;;;7.22;2.63;;;;;;;15.52;78.36;64593.25;5050878;28;20213;-60
2023/09/12 01:35:00;;;;;;;3.33;2.00;;;;;;;15.60;78.44;64604.03;5050949;28;20210;-57
2023/09/12 01:37:26;;;;;;;3.00;2.13;;;;;;;15.65;77.42;64610.09;5050959;28;20221;-59
2023/09/12 01:39:51;;;;;;;2.97;2.28;;;;;;;15.61;76.64;64602.59;5050830;28;20331;-54
2023/09/12 01:42:22;;;;;;;3.38;1.90;;;;;;;15.66;75.69;64610.63;5049455;28;20280;-54
2023/09/12 01:44:51;;;;;;;3.53;2.30;;;;;;;15.59;75.92;64597.84;5050959;28;20205;-54
2023/09/12 01:47:18;;;;;;;3.60;2.10;;;;;;;15.66;75.78;64611.19;5050655;28;20209;-53
2023/09/12 01:49:46;;;;;;;3.25;2.30;;;;;;;15.68;74.25;64610.84;5050549;28;20185;-54
2023/09/12 01:52:13;;;;;;;3.25;2.28;;;;;;;15.66;74.10;64610.63;5050674;28;20232;-54
2023/09/12 01:54:40;;;;;;;4.20;1.80;;;;;;;15.67;73.91;64609.75;5050474;28;20209;-54
2023/09/12 01:57:08;;;;;;;3.55;2.15;;;;;;;15.70;74.25;64615.03;5050450;28;20217;-54
2023/09/12 01:59:33;;;;;;;2.58;2.10;;;;;;;15.86;72.84;64632.63;5051137;28;20882;-55
2023/09/12 02:01:59;;;;;;;5.43;2.35;;;;;;;15.81;73.07;64625.16;5050587;28;20207;-54
2023/09/12 02:04:25;;;;;;;4.55;2.38;;;;;;;15.73;74.20;64618.34;5050796;28;20266;-54
2023/09/12 02:06:51;;;;;;;4.30;2.10;;;;;;;15.85;73.88;64631.53;5050671;28;20227;-55
2023/09/12 02:09:18;;;;;;;4.75;2.05;;;;;;;15.87;73.67;64631.75;5050727;28;20197;-53
2023/09/12 02:11:43;;;;;;;5.35;2.40;;;;;;;15.87;74.49;64631.19;5050485;28;20228;-54
2023/09/12 02:14:10;;;;;;;5.07;2.40;;;;;;;15.89;74.23;64635.94;5016139;28;20641;-53
2023/09/12 02:16:39;;;;;;;3.75;2.05;;;;;;;15.71;75.24;64611.06;5050345;28;20251;-57
2023/09/12 02:19:06;;;;;;;5.22;2.50;;;;;;;15.90;74.80;64634.50;5050785;28;20283;-55
2023/09/12 02:21:31;;;;;;;4.22;2.08;;;;;;;15.69;75.54;64611.41;5032501;28;20206;-53
2023/09/12 02:23:56;;;;;;;3.95;2.45;;;;;;;15.71;76.22;64616.13;5050702;28;20701;-53
2023/09/12 02:26:22;;;;;;;5.80;2.35;;;;;;;15.69;76.30;64613.94;5032330;28;20240;-54
2023/09/12 02:28:47;;;;;;;3.95;2.10;;;;;;;15.80;76.35;64624.03;5050232;28;20738;-54
2023/09/12 02:31:13;;;;;;;3.92;2.28;;;;;;;15.91;75.87;64633.06;5050242;28;20202;-53
2023/09/12 02:33:39;;;;;;;3.13;2.38;;;;;;;15.88;76.55;64634.84;5050366;28;20658;-54
2023/09/12 02:36:05;;;;;;;3.00;2.30;;;;;;;15.90;76.68;64634.50;5032182;28;20554;-54
2023/09/12 02:38:30;;;;;;;7.25;3.00;;;;;;;15.86;76.73;64630.09;5032372;28;20205;-53
2023/09/12 02:40:56;;;;;;;7.88;3.00;;;;;;;15.77;77.64;64620.75;5049664;28;20691;-53
2023/09/12 02:43:22;;;;;;;5.38;3.08;;;;;;;15.72;77.82;64614.69;5048529;28;20287;-54
2023/09/12 02:45:48;;;;;;;5.45;2.85;;;;;;;15.55;78.73;64594.00;5050099;28;20209;-55
2023/09/12 02:48:13;;;;;;;6.38;2.47;;;;;;;15.54;79.45;64597.44;5050342;28;20228;-52
2023/09/12 02:50:39;;;;;;;7.53;3.28;;;;;;;15.43;80.23;64582.81;5049995;28;20639;-51
2023/09/12 02:53:06;;;;;;;4.45;2.58;;;;;;;15.26;80.66;64567.16;5050084;28;20213;-52
2023/09/12 02:55:32;;;;;;;5.95;3.40;;;;;;;15.32;81.27;64573.22;5049791;28;20197;-53
2023/09/12 02:57:59;;;;;;;3.90;2.30;;;;;;;15.29;80.95;64567.91;5049921;28;20225;-54
2023/09/12 03:00:24;;;;;;;5.50;2.83;;;;;;;15.36;80.89;64575.06;5050163;28;20197;-53
2023/09/12 03:02:50;;;;;;;4.20;2.25;;;;;;;15.30;81.46;64569.03;5049987;28;20213;-52
2023/09/12 03:05:17;;;;;;;5.32;2.53;;;;;;;15.33;81.60;64571.78;5050136;28;20595;-53
2023/09/12 03:07:42;;;;;;;4.78;2.72;;;;;;;15.33;81.44;64574.31;5049851;28;20216;-54
2023/09/12 03:10:08;;;;;;;4.57;2.60;;;;;;;15.32;82.05;64571.22;5050195;28;20194;-53
2023/09/12 03:12:36;;;;;;;9.30;2.80;;;;;;;15.40;81.13;64582.00;5050179;28;20667;-58
2023/09/12 03:15:03;;;;;;;4.80;2.85;;;;;;;15.42;81.90;64582.25;5049969;28;20200;-54
2023/09/12 03:17:29;;;;;;;11.32;3.03;;;;;;;15.51;81.25;64591.59;5049658;28;20210;-53
2023/09/12 03:19:54;;;;;;;4.45;2.60;;;;;;;15.57;81.57;64600.75;5049772;28;20208;-53
2023/09/12 03:22:20;;;;;;;4.07;2.78;;;;;;;15.43;81.00;64587.88;5049748;28;20197;-53
2023/09/12 03:24:45;;;;;;;4.70;2.80;;;;;;;15.25;82.86;64566.06;5049657;28;20650;-57
2023/09/12 03:27:10;;;;;;;4.13;2.80;;;;;;;15.36;82.75;64575.06;5049567;28;20730;-52
2023/09/12 03:29:36;;;;;;;3.67;2.78;;;;;;;15.37;82.84;64576.19;5050341;28;20205;-51
2023/09/12 03:32:02;;;;;;;4.90;3.38;;;;;;;15.61;81.90;64605.13;5049711;28;20686;-51
2023/09/12 03:34:28;;;;;;;7.10;2.78;;;;;;;15.42;83.30;64579.13;5050003;28;20214;-51
2023/09/12 03:36:53;;;;;;;7.07;2.97;;;;;;;15.52;83.21;64595.78;5049522;28;20220;-51
2023/09/12 03:39:19;;;;;;;3.55;2.50;;;;;;;15.62;81.93;64606.78;5049793;28;20325;-58
2023/09/12 03:41:44;;;;;;;4.72;2.67;;;;;;;15.35;83.30;64574.50;5049437;28;20602;-50
2023/09/12 03:44:09;;;;;;;4.82;2.80;;;;;;;15.25;84.08;64565.53;5049559;28;20698;-51
2023/09/12 03:46:35;;;;;;;4.13;3.00;;;;;;;15.12;84.33;64552.31;5049544;28;20284;-51
2023/09/12 03:49:00;;;;;;;3.88;3.03;;;;;;;15.26;82.94;64562.09;5031684;28;20696;-50
2023/09/12 03:51:26;;;;;;;4.18;1.98;;;;;;;15.04;77.71;64543.53;5049496;28;20214;-51
2023/09/12 03:53:51;;;;;;;6.25;2.95;;;;;;;15.16;75.70;64553.63;5051687;28;20208;-54
2023/09/12 03:56:19;;;;;;;8.18;2.50;;;;;;;14.92;77.35;64530.34;5052533;28;20535;-50
2023/09/12 03:58:45;;;;;;;5.18;1.90;;;;;;;14.91;76.42;64523.59;5053087;28;20185;-50
2023/09/12 04:01:11;;;;;;;4.20;2.15;;;;;;;14.67;77.43;64499.75;5052597;28;20694;-51
2023/09/12 04:03:36;;;;;;;4.72;2.20;;;;;;;14.57;78.47;64491.31;5052920;28;20205;-50
2023/09/12 04:06:02;;;;;;;4.63;2.38;;;;;;;14.62;78.57;64496.81;5034742;28;20224;-53
2023/09/12 04:08:27;;;;;;;4.07;2.40;;;;;;;14.61;79.34;64493.72;5034940;28;20558;-50
2023/09/12 04:10:53;;;;;;;3.80;2.80;;;;;;;14.28;81.33;64457.47;5052624;28;20729;-50
2023/09/12 04:13:19;;;;;;;4.07;1.92;;;;;;;14.12;83.24;64440.41;5035016;28;20194;-52
2023/09/12 04:15:45;;;;;;;6.78;2.50;;;;;;;14.07;83.58;64436.91;5052445;28;20635;-50
2023/09/12 04:18:10;;;;;;;4.35;2.30;;;;;;;13.97;83.92;64425.94;5052170;28;20633;-51
2023/09/12 04:20:36;;;;;;;3.13;2.33;;;;;;;13.92;83.97;64417.88;5052700;28;20198;-51
2023/09/12 04:23:05;;;;;;;5.03;2.33;;;;;;;13.87;84.83;64410.44;5052353;28;20237;-51
2023/09/12 04:25:31;;;;;;;4.75;2.00;;;;;;;13.84;85.29;64411.63;5034422;28;20205;-52
2023/09/12 04:27:57;;;;;;;6.70;2.58;;;;;;;13.74;85.71;64398.13;5052178;28;20220;-51
2023/09/12 04:30:24;;;;;;;3.75;2.17;;;;;;;13.67;86.49;64392.97;5052211;28;20205;-50
2023/09/12 04:32:50;;;;;;;2.95;2.40;;;;;;;13.76;85.41;64403.41;5034198;28;20212;-51
2023/09/12 04:35:19;;;;;;;2.22;1.98;;;;;;;13.86;84.89;64413.84;5034296;28;20210;-51
2023/09/12 04:37:45;;;;;;;4.47;2.83;;;;;;;14.00;84.40;64429.22;5052118;28;20225;-51
2023/09/12 04:40:11;;;;;;;4.18;2.28;;;;;;;13.97;85.34;64423.94;5052109;28;20209;-51
2023/09/12 04:42:36;;;;;;;2.97;2.13;;;;;;;13.87;86.10;64412.41;5051928;28;20306;-50
2023/09/12 04:45:02;;;;;;;4.57;2.38;;;;;;;14.03;86.91;64430.53;5051985;28;20343;-50
2023/09/12 04:47:27;;;;;;;7.97;3.22;;;;;;;14.10;87.54;64440.75;5051903;28;20217;-50
2023/09/12 04:49:53;;;;;;;5.40;3.08;;;;;;;14.29;85.20;64459.13;5051884;28;20254;-53
2023/09/12 04:52:19;;;;;;;3.35;2.28;;;;;;;14.34;83.99;64466.03;5051703;28;20205;-50
2023/09/12 04:54:45;;;;;;;6.63;2.83;;;;;;;14.45;84.19;64475.59;5051627;28;20287;-51
2023/09/12 04:57:10;;;;;;;3.92;2.95;;;;;;;14.35;83.79;64467.13;5051611;28;20305;-51
2023/09/12 04:59:36;;;;;;;3.85;2.53;;;;;;;14.38;82.71;64468.47;5051600;28;20676;-51
2023/09/12 05:02:01;;;;;;;6.78;2.42;;;;;;;14.36;82.47;64468.78;5051781;28;20259;-58
2023/09/12 05:04:27;;;;;;;4.90;2.35;;;;;;;14.45;81.05;64478.13;5051490;28;20201;-51
2023/09/12 05:06:53;;;;;;;6.07;2.50;;;;;;;14.45;81.51;64480.66;5051814;28;20304;-52
2023/09/12 05:09:18;;;;;;;4.55;2.17;;;;;;;14.45;81.03;64473.59;5051991;28;20259;-51
2023/09/12 05:11:44;;;;;;;3.35;2.10;;;;;;;14.40;81.95;64473.19;5051612;28;20676;-51
2023/09/12 05:14:09;;;;;;;6.55;2.15;;;;;;;14.53;82.42;64487.47;5051584;28;20202;-50
2023/09/12 05:16:35;;;;;;;3.55;2.50;;;;;;;14.60;81.88;64495.16;5051535;28;20652;-50
2023/09/12 05:19:00;;;;;;;4.28;2.25;;;;;;;14.84;81.20;64521.00;5051922;28;20259;-52
2023/09/12 05:21:25;;;;;;;3.75;2.00;;;;;;;14.84;79.15;64521.53;5051593;28;20232;-50
2023/09/12 05:23:51;;;;;;;3.35;2.10;;;;;;;14.77;79.79;64513.84;5052049;28;20197;-51
2023/09/12 05:26:17;;;;;;;3.67;2.10;;;;;;;14.80;79.53;64514.06;5051413;28;20224;-51
2023/09/12 05:28:42;;;;;;;3.30;2.38;;;;;;;14.77;79.75;64513.84;5051962;28;20200;-51
2023/09/12 05:31:08;;;;;;;6.07;2.63;;;;;;;14.55;80.18;64489.66;5072822;22;20679;-51
2023/09/12 05:33:34;;;;;;;4.35;2.20;;;;;;;14.79;80.82;64515.50;5070623;28;20259;-50
2023/09/12 05:36:00;;;;;;;3.63;2.50;;;;;;;14.73;80.97;64506.91;5070077;28;20208;-50
2023/09/12 05:38:26;;;;;;;7.65;2.72;;;;;;;15.02;80.11;64540.78;5051330;28;20243;-50
2023/09/12 05:40:51;;;;;;;6.72;2.15;;;;;;;15.05;79.31;64541.53;5051296;28;20201;-51
2023/09/12 05:43:17;;;;;;;5.72;2.55;;;;;;;15.26;78.84;64566.63;5051219;28;20585;-51
2023/09/12 05:45:44;;;;;;;4.68;2.55;;;;;;;15.35;78.47;64577.06;5051391;28;20621;-51
2023/09/12 05:48:09;;;;;;;2.83;2.50;;;;;;;15.49;77.72;64591.94;5033596;28;20214;-50
2023/09/12 05:50:36;;;;;;;4.95;3.00;;;;;;;15.38;78.06;64579.81;5033786;28;20228;-50
2023/09/12 05:53:02;;;;;;;4.47;3.35;;;;;;;15.46;78.07;64586.09;5051097;28;20209;-51
2023/09/12 05:55:28;;;;;;;4.65;2.50;;;;;;;15.59;77.22;64602.94;5051044;28;20656;-51
2023/09/12 05:57:53;;;;;;;3.45;2.58;;;;;;;15.72;77.45;64617.22;5050920;28;20221;-50
2023/09/12 06:00:20;;;;;;;4.97;2.42;;;;;;;15.64;76.99;64608.44;5033199;28;20198;-52
2023/09/12 06:02:47;;;;;;;3.92;2.53;;;;;;;15.72;75.66;64612.16;5050979;28;20267;-50
2023/09/12 06:05:13;;;;;;;3.35;2.33;;;;;;;15.63;76.96;64604.81;5050920;28;20197;-51
2023/09/12 06:07:40;;;;;;;5.00;2.50;;;;;;;15.71;76.58;64616.13;5051161;28;20245;-57
2023/09/12 06:10:07;;;;;;;5.05;2.50;;;;;;;15.80;76.76;64626.59;5051086;28;20687;-51
2023/09/12 06:12:33;;;;;;;6.43;2.92;;;;;;;15.98;75.94;64642.75;5051133;28;20213;-51
2023/09/12 06:14:59;;;;;;;13.30;2.97;;;;;;;16.02;76.00;64647.69;5050811;28;20668;-51
2023/09/12 06:17:24;;;;;;;5.05;2.58;;;;;;;16.03;75.49;64646.25;5049638;28;20687;-52
2023/09/12 06:19:50;;;;;;;6.65;2.58;;;;;;;16.23;75.26;64673.38;5050631;28;20190;-51
2023/09/12 06:22:17;;;;;;;5.50;2.90;;;;;;;16.30;76.01;64678.50;5050643;28;20245;-51
2023/09/12 06:24:43;;;;;;;8.93;3.90;;;;;;;16.55;73.18;64703.53;5050878;28;20200;-50
2023/09/12 06:27:09;;;;;;;5.60;2.75;;;;;;;16.70;72.67;64722.56;5050713;28;20213;-52
2023/09/12 06:29:35;;;;;;;6.25;3.50;;;;;;;16.86;70.41;64741.66;5050707;28;20197;-51
2023/09/12 06:32:02;;;;;;;6.30;3.33;;;;;;;16.92;70.58;64748.25;5050830;28;20201;-59
2023/09/12 06:34:27;;;;;;;28.05;15.10;;;;;;;17.07;70.66;64762.25;5050648;28;20208;-54
2023/09/12 06:36:53;;;;;;;9.27;5.93;;;;;;;17.17;68.28;64776.34;5050655;28;20594;-55
2023/09/12 06:39:19;;;;;;;4.68;2.75;;;;;;;17.30;67.43;64788.13;5050691;28;20209;-54
2023/09/12 06:41:44;;;;;;;13.98;7.72;;;;;;;17.32;67.91;64790.31;5050630;28;20213;-53
2023/09/12 06:44:10;;;;;;;4.82;2.60;;;;;;;17.32;67.50;64790.31;5032518;28;20201;-56
2023/09/12 06:46:38;;;;;;;5.47;2.88;;;;;;;17.32;66.72;64789.78;5050580;28;20282;-54
2023/09/12 06:49:04;;;;;;;7.05;3.00;;;;;;;17.19;65.94;64776.00;5050516;28;20663;-57
2023/09/12 06:51:30;;;;;;;7.47;2.80;;;;;;;17.20;64.64;64779.09;5050689;28;20217;-54
2023/09/12 06:53:55;;;;;;;5.25;2.80;;;;;;;17.24;64.42;64783.50;5032625;28;20209;-54
2023/09/12 06:56:21;;;;;;;5.30;3.28;;;;;;;17.25;63.42;64782.06;5050376;28;20240;-55
2023/09/12 06:58:49;;;;;;;7.32;2.70;;;;;;;17.66;62.98;64824.72;5050413;28;20612;-55
2023/09/12 07:01:15;;;;;;;4.10;2.70;;;;;;;17.76;62.15;64835.72;5032808;28;20756;-54
2023/09/12 07:03:41;;;;;;;7.30;3.50;;;;;;;17.89;62.21;64855.19;5032179;28;20224;-54
2023/09/12 07:06:08;;;;;;;8.60;3.28;;;;;;;18.20;61.27;64889.34;5050332;28;20186;-54
2023/09/12 07:08:33;;;;;;;7.07;3.03;;;;;;;18.33;62.13;64898.03;5050131;28;20224;-56
2023/09/12 07:11:05;;;;;;;9.90;3.33;;;;;;;18.24;61.79;64888.13;5032073;28;20205;-54
2023/09/12 07:13:32;;;;;;;5.75;3.30;;;;;;;18.35;62.34;64905.91;5050167;28;20211;-54
2023/09/12 07:15:58;;;;;;;10.48;4.15;;;;;;;18.41;63.30;64907.41;5050053;28;20288;-54
2023/09/12 07:18:24;;;;;;;9.85;3.95;;;;;;;18.37;61.96;64908.09;5049961;28;20344;-56
2023/09/12 07:21:01;;;;;;;9.70;4.10;;;;;;;18.58;61.93;64927.63;5050047;28;20229;-54
2023/09/12 07:23:28;;;;;;;13.27;4.18;;;;;;;19.01;61.71;64972.50;5050039;28;20225;-57
2023/09/12 07:25:58;;;;;;;10.38;4.43;;;;;;;19.32;61.03;65009.28;5031847;28;20371;-54
2023/09/12 07:28:28;;;;;;;10.75;3.45;;;;;;;19.46;59.95;65022.22;5051347;28;20263;-53
2023/09/12 07:30:57;;;;;;;7.18;3.95;;;;;;;19.43;60.48;65018.91;5053496;28;20189;-54
2023/09/12 07:33:23;;;;;;;12.68;3.70;;;;;;;19.91;58.90;65071.91;5053551;28;20189;-55
2023/09/12 07:35:52;;;;;;;12.55;3.08;;;;;;;20.14;58.36;65101.88;5053341;28;20217;-54
2023/09/12 07:38:18;;;;;;;9.95;3.50;;;;;;;20.05;56.78;65086.81;5053399;28;20262;-54
2023/09/12 07:40:43;;;;;;;6.28;3.83;;;;;;;19.77;54.66;65055.91;5053560;28;20304;-55
2023/09/12 07:43:10;;;;;;;4.63;3.20;;;;;;;19.83;54.92;65065.63;5053303;28;20237;-53
2023/09/12 07:45:37;;;;;;;7.15;3.20;;;;;;;20.05;53.90;65087.38;5053322;28;20212;-54
2023/09/12 07:48:07;;;;;;;9.50;3.15;;;;;;;20.25;53.67;65108.38;5053223;28;20218;-53
2023/09/12 07:50:33;;;;;;;4.35;3.03;;;;;;;20.53;53.68;65141.88;5053341;28;20193;-53
2023/09/12 07:52:59;;;;;;;6.22;3.35;;;;;;;20.43;52.14;65133.94;5052900;28;20649;-54
2023/09/12 07:55:25;;;;;;;6.55;3.05;;;;;;;20.57;51.69;65144.28;5053100;28;20189;-52
2023/09/12 07:57:50;;;;;;;6.95;3.30;;;;;;;20.61;52.16;65151.28;5052930;28;20213;-54
2023/09/12 08:00:17;;;;;;;5.60;2.78;;;;;;;20.99;50.69;65189.63;5051797;28;20695;-58
2023/09/12 08:02:43;;;;;;;5.97;2.65;;;;;;;21.15;50.21;65209.91;5052985;28;20276;-54
2023/09/12 08:05:09;;;;;;;6.22;3.50;;;;;;;21.46;49.96;65242.16;5052956;28;20204;-53
2023/09/12 08:10:19;;;;;;;7.18;3.78;;;;;;;21.26;50.17;65220.03;5053198;28;20219;-54
2023/09/12 08:12:45;;;;;;;5.75;2.92;;;;;;;21.30;47.89;65226.47;5052689;28;20269;-51
2023/09/12 08:15:10;;;;;;;7.07;3.38;;;;;;;21.52;47.77;65248.78;5052892;28;20193;-53
2023/09/12 08:17:36;;;;;;;6.05;2.95;;;;;;;21.88;47.96;65290.09;5052457;28;20233;-53
2023/09/12 08:20:02;;;;;;;4.97;2.85;;;;;;;22.14;47.02;65318.88;5052844;28;20664;-51
2023/09/12 08:22:28;;;;;;;7.47;3.00;;;;;;;21.88;45.57;65287.53;5052487;28;20261;-51
2023/09/12 08:24:53;;;;;;;8.20;3.10;;;;;;;22.16;45.94;65318.53;5052526;28;20627;-52
2023/09/12 08:27:18;;;;;;;6.35;3.00;;;;;;;22.24;45.64;65329.94;5052572;28;20224;-51
2023/09/12 08:29:46;;;;;;;7.43;3.05;;;;;;;21.93;45.08;65293.06;5052931;28;20638;-51
2023/09/12 08:32:12;;;;;;;5.03;2.70;;;;;;;22.30;44.53;65336.59;5052653;28;20210;-53
2023/09/12 08:34:37;;;;;;;4.72;2.53;;;;;;;22.87;44.02;65397.16;5052454;28;20723;-54
2023/09/12 08:37:02;;;;;;;8.13;2.72;;;;;;;23.20;44.92;65436.28;5052214;28;20267;-61
2023/09/12 08:39:41;;;;;;;2.72;2.08;;;;;;;23.28;43.48;65442.56;5051392;28;20701;-51
2023/09/12 08:42:11;;;;;;;7.22;3.05;;;;;;;23.27;41.92;65440.91;5052331;28;20216;-51
2023/09/12 08:44:37;;;;;;;4.60;2.67;;;;;;;23.61;42.46;65478.03;5052336;28;20233;-54
2023/09/12 08:47:05;;;;;;;5.95;2.55;;;;;;;24.01;42.20;65522.38;5018290;28;20253;-51
2023/09/12 08:49:34;;;;;;;7.30;2.60;;;;;;;23.71;41.04;65489.69;5034144;28;20198;-51
2023/09/12 08:52:00;;;;;;;5.90;2.45;;;;;;;23.76;41.23;65494.66;5052587;28;20294;-51
2023/09/12 08:54:25;;;;;;;9.00;2.65;;;;;;;23.75;39.88;65493.56;5052124;28;20668;-50
2023/09/12 08:56:51;;;;;;;3.40;2.38;;;;;;;24.22;40.04;65548.25;5034280;28;20756;-51
2023/09/12 08:59:17;;;;;;;4.05;2.17;;;;;;;24.84;41.25;65613.91;5051938;28;20201;-52
2023/09/12 09:01:44;;;;;;;4.70;2.60;;;;;;;24.59;38.80;65586.72;5052038;28;20608;-55
2023/09/12 09:04:10;;;;;;;4.07;2.38;;;;;;;25.44;37.35;65675.34;5052145;28;20201;-55
2023/09/12 09:06:37;;;;;;;3.05;2.03;;;;;;;25.87;38.25;65724.56;5052077;28;20736;-52
2023/09/12 09:09:06;;;;;;;6.90;2.17;;;;;;;26.13;36.30;65758.63;5052196;28;20350;-53
2023/09/12 09:11:31;;;;;;;6.60;2.63;;;;;;;26.10;36.92;65752.72;5052021;28;20213;-52
2023/09/12 09:13:57;;;;;;;6.05;2.72;;;;;;;25.84;36.25;65723.81;5051907;28;20684;-53
2023/09/12 09:16:23;;;;;;;6.57;2.33;;;;;;;25.32;37.36;65667.19;5051786;28;20671;-52
2023/09/12 09:18:58;;;;;;;4.07;2.47;;;;;;;25.42;36.64;65678.31;5051657;28;20331;-52
2023/09/12 09:21:26;;;;;;;6.22;2.60;;;;;;;26.10;37.36;65753.25;5051834;28;20213;-53
2023/09/12 09:23:53;;;;;;;3.90;2.35;;;;;;;26.57;35.50;65802.34;5051555;28;20228;-58
2023/09/12 09:26:19;;;;;;;6.75;2.70;;;;;;;26.36;34.32;65784.19;5051477;28;20217;-52
2023/09/12 09:28:45;;;;;;;6.30;2.10;;;;;;;26.99;35.04;65848.47;5051542;28;20227;-51
2023/09/12 09:31:13;;;;;;;4.30;2.20;;;;;;;27.38;34.79;65891.84;5033688;28;20355;-51
2023/09/12 09:33:48;;;;;;;6.47;2.05;;;;;;;26.85;34.33;65832.91;5033779;28;20258;-50
2023/09/12 09:36:15;;;;;;;4.70;2.38;;;;;;;27.46;32.87;65900.19;5051682;28;20205;-52
2023/09/12 09:38:41;;;;;;;8.48;3.13;;;;;;;27.77;32.72;65937.25;5033451;28;20225;-52
2023/09/12 09:41:07;;;;;;;6.47;2.35;;;;;;;26.60;33.61;65805.69;5033735;28;20209;-51
2023/09/12 09:43:33;;;;;;;4.75;2.40;;;;;;;26.43;33.47;65792.50;5033200;28;20711;-51
2023/09/12 09:45:58;;;;;;;5.60;1.92;;;;;;;26.44;33.51;65791.03;5051442;28;20190;-51
2023/09/12 09:48:30;;;;;;;5.97;2.13;;;;;;;27.25;32.82;65877.38;5033511;28;20643;-52
2023/09/12 09:51:03;;;;;;;6.82;2.65;;;;;;;27.72;33.39;65931.69;5051220;28;20854;-52
2023/09/12 09:53:33;;;;;;;5.85;2.30;;;;;;;28.74;32.82;66045.22;5051329;28;20197;-51
2023/09/12 09:58:26;;;;;;;5.47;2.63;;;;;;;28.09;32.20;65972.88;5080409;22;20233;-52
2023/09/12 10:00:51;;;;;;;4.55;2.58;;;;;;;28.34;30.61;65998.09;5070999;28;20208;-50
2023/09/12 10:03:21;;;;;;;5.97;2.40;;;;;;;28.19;31.28;65978.81;5051033;28;20185;-51
2023/09/12 10:05:51;;;;;;;6.93;2.38;;;;;;;28.31;30.78;65994.19;5051062;28;20205;-52
2023/09/12 10:08:18;;;;;;;7.55;2.80;;;;;;;27.83;31.27;65941.91;5033236;28;20217;-52
2023/09/12 10:10:44;;;;;;;5.05;2.50;;;;;;;27.66;31.72;65925.00;5051019;28;20208;-52
2023/09/12 10:13:10;;;;;;;6.38;2.25;;;;;;;27.89;32.33;65951.16;5051077;28;20289;-52
2023/09/12 10:15:41;;;;;;;4.78;2.53;;;;;;;28.48;30.31;66013.13;5051289;28;20340;-55
2023/09/12 10:18:20;;;;;;;7.60;2.90;;;;;;;29.45;29.36;66121.13;5050577;28;20220;-52
2023/09/12 10:20:53;;;;;;;5.00;2.28;;;;;;;29.80;29.68;66157.00;5050713;28;20267;-50
2023/09/12 10:23:19;;;;;;;11.43;2.80;;;;;;;30.41;29.75;66224.44;5050805;28;20201;-52
2023/09/12 10:25:45;;;;;;;3.20;2.50;;;;;;;30.74;28.88;66266.44;5051277;28;20251;-51
2023/09/12 10:28:12;;;;;;;7.80;2.55;;;;;;;30.07;28.97;66189.13;5050817;28;20254;-52
2023/09/12 10:30:39;;;;;;;5.80;2.67;;;;;;;30.65;28.87;66251.75;5050886;28;20208;-52
2023/09/12 10:33:07;;;;;;;4.32;2.17;;;;;;;30.77;28.66;66266.59;5050854;28;20208;-56
2023/09/12 10:35:35;;;;;;;5.85;2.95;;;;;;;31.15;28.24;66309.56;5032599;28;20370;-51
2023/09/12 10:38:08;;;;;;;4.68;2.20;;;;;;;31.40;28.60;66336.91;5050289;28;20240;-56
2023/09/12 10:40:38;;;;;;;3.42;1.88;;;;;;;31.49;27.81;66346.97;5050617;28;21034;-52
2023/09/12 10:43:05;;;;;;;10.43;2.58;;;;;;;31.83;27.52;66384.34;5050373;28;20308;-53
2023/09/12 10:45:33;;;;;;;6.68;2.47;;;;;;;31.88;26.91;66389.91;5032666;28;20208;-52
2023/09/12 10:47:59;;;;;;;2.80;2.50;;;;;;;32.15;27.65;66420.63;5032641;28;20206;-51
2023/09/12 10:50:27;;;;;;;6.53;2.53;;;;;;;32.26;27.56;66432.91;5050722;28;20205;-52
2023/09/12 10:52:52;;;;;;;4.25;2.40;;;;;;;31.98;27.29;66399.03;5050552;28;20213;-55
2023/09/12 10:55:18;;;;;;;4.95;2.75;;;;;;;31.96;27.49;66396.25;5050275;28;20691;-51
2023/09/12 10:58:04;;;;;;;4.93;2.53;;;;;;;31.02;28.14;66295.06;5050212;28;20240;-52
2023/09/12 11:00:33;;;;;;;3.70;2.55;;;;;;;29.68;30.37;66148.81;5032145;28;20280;-52
2023/09/12 11:03:01;;;;;;;3.80;2.45;;;;;;;30.89;28.58;66280.56;5049353;28;20213;-51
2023/09/12 11:05:49;;;;;;;4.55;2.40;;;;;;;31.78;28.47;66379.31;5050097;28;20201;-51
2023/09/12 11:08:16;;;;;;;4.03;2.60;;;;;;;31.43;27.28;66340.81;5049864;28;20311;-51
2023/09/12 11:10:44;;;;;;;6.05;2.83;;;;;;;31.61;27.96;66360.34;5032050;28;20210;-51
2023/09/12 11:13:18;;;;;;;4.78;2.05;;;;;;;31.64;27.19;66363.13;5032207;28;20251;-51
2023/09/12 11:16:10;;;;;;;4.03;2.35;;;;;;;31.88;27.15;66389.91;5049859;28;20216;-52
2023/09/12 11:21:33;;;;;;;4.85;2.67;;;;;;;31.88;26.91;66390.47;5072709;22;20232;-51
2023/09/12 11:23:59;;;;;;;5.55;2.30;;;;;;;29.45;27.55;66123.19;5050160;28;20193;-52
2023/09/12 11:26:25;;;;;;;5.85;2.60;;;;;;;30.70;27.40;66261.97;5048606;28;20213;-51
2023/09/12 11:28:50;;;;;;;8.27;2.33;;;;;;;31.70;27.07;66369.81;5049985;28;20268;-52
2023/09/12 11:31:28;;;;;;;6.53;2.78;;;;;;;32.19;26.67;66424.53;5050513;28;20222;-52
2023/09/12 11:33:54;;;;;;;5.45;2.33;;;;;;;32.54;26.04;66461.03;5032151;28;20283;-51
2023/09/12 11:36:20;;;;;;;6.03;2.42;;;;;;;32.26;26.70;66432.38;5050164;28;20217;-51
2023/09/12 11:38:51;;;;;;;5.63;2.58;;;;;;;32.78;25.61;66487.28;5049890;28;20672;-51
2023/09/12 11:41:39;;;;;;;4.97;2.90;;;;;;;33.01;25.58;66513.53;5032251;28;20213;-57